Time;durP1;ratioP1;P1;durP2;ratioP2;P2;SDS_P1;SDS_P2;PMS_P1;PMS_P2;Temp;Humidity;BMP_temperature;BMP_pressure;BME280_temperature;BME280_humidity;BME280_pressure;Samples;Min_cycle;Max_cycle;Signal;HPM_P1;HPM_P2
2023/12/25 00:01:06;;;;;;;0.10;0.10;;;;;;;;;;5004395;28;20101;-80
2023/12/25 00:03:35;;;;;;;0.03;0.03;;;;;;;;;;4986977;28;21081;-81
2023/12/25 00:06:14;;;;;;;0.65;0.60;;;;;;;;;;5009953;28;20046;-81
2023/12/25 00:08:42;;;;;;;0.10;0.10;;;;;;;;;;5009714;28;20096;-82
2023/12/25 00:11:10;;;;;;;0.03;0.03;;;;;;;;;;4991639;28;20053;-82
2023/12/25 00:13:38;;;;;;;0.05;0.05;;;;;;;;;;5005486;28;20527;-82
2023/12/25 00:16:05;;;;;;;0.08;0.08;;;;;;;;;;5007555;28;20054;-82
2023/12/25 00:18:32;;;;;;;1.10;0.43;;;;;;;;;;5003300;28;20057;-83
2023/12/25 00:21:00;;;;;;;0.10;0.10;;;;;;;;;;4999200;28;20046;-81
2023/12/25 00:23:28;;;;;;;0.40;0.38;;;;;;;;;;4990923;28;20096;-81
2023/12/25 00:25:59;;;;;;;0.10;0.10;;;;;;;;;;4997821;28;20070;-82
2023/12/25 00:28:29;;;;;;;0.55;0.20;;;;;;;;;;5005619;28;20510;-80
2023/12/25 00:30:56;;;;;;;1.08;0.40;;;;;;;;;;5007302;28;20058;-79
2023/12/25 00:33:24;;;;;;;0.10;0.10;;;;;;;;;;5005072;28;20046;-81
2023/12/25 00:35:55;;;;;;;0.10;0.10;;;;;;;;;;5003129;28;21530;-81
2023/12/25 00:38:23;;;;;;;0.00;0.00;;;;;;;;;;4993994;28;20034;-81
2023/12/25 00:40:53;;;;;;;0.10;0.10;;;;;;;;;;5000568;28;20575;-82
2023/12/25 00:43:20;;;;;;;0.22;0.22;;;;;;;;;;5004709;28;20077;-82
2023/12/25 00:45:47;;;;;;;0.10;0.10;;;;;;;;;;4995086;28;20667;-82
2023/12/25 00:48:15;;;;;;;0.22;0.22;;;;;;;;;;4998057;28;20113;-81
2023/12/25 00:50:44;;;;;;;0.25;0.25;;;;;;;;;;5011926;28;20121;-83
2023/12/25 00:53:21;;;;;;;0.10;0.10;;;;;;;;;;5005546;28;20104;-82
2023/12/25 00:55:49;;;;;;;0.10;0.10;;;;;;;;;;5002221;28;20134;-81
2023/12/25 00:58:16;;;;;;;1.13;0.47;;;;;;;;;;4998166;28;20039;-80
2023/12/25 01:00:44;;;;;;;0.10;0.10;;;;;;;;;;4999155;28;20077;-82
2023/12/25 01:03:12;;;;;;;0.25;0.22;;;;;;;;;;5006491;28;20065;-82
2023/12/25 01:05:44;;;;;;;0.25;0.25;;;;;;;;;;4986846;28;20062;-81
2023/12/25 01:08:13;;;;;;;0.10;0.10;;;;;;;;;;4991378;28;20053;-81
2023/12/25 01:10:41;;;;;;;0.10;0.10;;;;;;;;;;5002891;28;20064;-83
2023/12/25 01:13:08;;;;;;;0.13;0.10;;;;;;;;;;4987783;28;20046;-83
2023/12/25 01:15:35;;;;;;;0.10;0.10;;;;;;;;;;5011441;28;20136;-82
2023/12/25 01:18:03;;;;;;;0.90;0.40;;;;;;;;;;5008029;28;20500;-82
2023/12/25 01:20:31;;;;;;;8.98;0.35;;;;;;;;;;4992763;28;20039;-81
2023/12/25 01:22:58;;;;;;;0.00;0.00;;;;;;;;;;4991807;28;20129;-81
2023/12/25 01:25:25;;;;;;;0.28;0.28;;;;;;;;;;4998929;28;20073;-83
2023/12/25 01:27:53;;;;;;;0.10;0.10;;;;;;;;;;4991526;28;20038;-83
2023/12/25 01:30:20;;;;;;;0.13;0.13;;;;;;;;;;5010780;28;20046;-81
2023/12/25 01:32:51;;;;;;;0.15;0.15;;;;;;;;;;4987815;28;20141;-84
2023/12/25 01:35:18;;;;;;;0.32;0.32;;;;;;;;;;4989903;28;20042;-83
2023/12/25 01:37:47;;;;;;;0.10;0.10;;;;;;;;;;4999695;28;20041;-84
2023/12/25 01:40:16;;;;;;;0.10;0.10;;;;;;;;;;5000088;28;20649;-80
2023/12/25 01:42:46;;;;;;;0.20;0.20;;;;;;;;;;5009541;28;20061;-81
2023/12/25 01:45:14;;;;;;;0.10;0.10;;;;;;;;;;5003653;28;20053;-81
2023/12/25 01:47:42;;;;;;;1.83;0.30;;;;;;;;;;5011606;28;20104;-82
2023/12/25 01:50:11;;;;;;;0.10;0.10;;;;;;;;;;5003698;28;20058;-81
2023/12/25 01:52:40;;;;;;;0.10;0.10;;;;;;;;;;4993493;28;20053;-82
2023/12/25 01:55:08;;;;;;;0.10;0.10;;;;;;;;;;4983993;28;20042;-83
2023/12/25 01:57:36;;;;;;;0.32;0.20;;;;;;;;;;5011031;28;20048;-84
2023/12/25 02:00:04;;;;;;;0.20;0.20;;;;;;;;;;4995189;28;20045;-82
2023/12/25 02:02:38;;;;;;;0.00;0.00;;;;;;;;;;5001424;28;20050;-83
2023/12/25 02:05:08;;;;;;;0.10;0.10;;;;;;;;;;4988385;28;20046;-84
2023/12/25 02:07:41;;;;;;;0.10;0.10;;;;;;;;;;5017005;28;20046;-84
2023/12/25 02:10:09;;;;;;;0.10;0.10;;;;;;;;;;4994520;28;20081;-82
2023/12/25 02:12:38;;;;;;;0.03;0.03;;;;;;;;;;4992639;28;20300;-83
2023/12/25 02:15:06;;;;;;;0.00;0.00;;;;;;;;;;5008377;28;20134;-84
2023/12/25 02:17:34;;;;;;;0.00;0.00;;;;;;;;;;5001223;28;20038;-83
2023/12/25 02:20:02;;;;;;;0.10;0.10;;;;;;;;;;5006855;28;20050;-82
2023/12/25 02:22:30;;;;;;;0.35;0.35;;;;;;;;;;4990930;28;20042;-82
2023/12/25 02:25:02;;;;;;;0.10;0.10;;;;;;;;;;5015326;28;20117;-83
2023/12/25 02:27:30;;;;;;;0.10;0.10;;;;;;;;;;4995621;28;20074;-82
2023/12/25 02:29:57;;;;;;;0.00;0.00;;;;;;;;;;5013347;28;20077;-82
2023/12/25 02:32:25;;;;;;;0.10;0.10;;;;;;;;;;5007923;28;20050;-84
2023/12/25 02:34:52;;;;;;;0.05;0.05;;;;;;;;;;5012783;28;20061;-82
2023/12/25 02:37:20;;;;;;;0.32;0.32;;;;;;;;;;5015333;28;20047;-83
2023/12/25 02:39:47;;;;;;;0.10;0.10;;;;;;;;;;5015172;28;20050;-83
2023/12/25 02:42:14;;;;;;;0.20;0.20;;;;;;;;;;5016782;28;20141;-81
2023/12/25 02:44:42;;;;;;;0.10;0.10;;;;;;;;;;5004228;28;20076;-82
2023/12/25 02:47:10;;;;;;;0.10;0.10;;;;;;;;;;5008374;28;20157;-83
2023/12/25 02:49:37;;;;;;;0.20;0.20;;;;;;;;;;4997230;28;20132;-84
2023/12/25 02:52:05;;;;;;;0.10;0.10;;;;;;;;;;5008834;28;20047;-82
2023/12/25 02:54:32;;;;;;;0.10;0.10;;;;;;;;;;4996336;28;20078;-80
2023/12/25 02:56:59;;;;;;;0.25;0.25;;;;;;;;;;4996170;28;20053;-84
2023/12/25 02:59:27;;;;;;;0.10;0.10;;;;;;;;;;5004370;28;20049;-81
2023/12/25 03:01:55;;;;;;;1.65;0.20;;;;;;;;;;5010452;28;20064;-82
2023/12/25 03:04:24;;;;;;;0.00;0.00;;;;;;;;;;4994792;28;20047;-82
2023/12/25 03:06:52;;;;;;;0.10;0.10;;;;;;;;;;5003715;28;20097;-80
2023/12/25 03:09:19;;;;;;;0.17;0.17;;;;;;;;;;5020213;28;20506;-80
2023/12/25 03:11:47;;;;;;;0.10;0.10;;;;;;;;;;5009498;28;20049;-82
2023/12/25 03:14:15;;;;;;;0.10;0.10;;;;;;;;;;5015376;28;20046;-82
2023/12/25 03:16:42;;;;;;;0.10;0.10;;;;;;;;;;5009733;28;20056;-82
2023/12/25 03:19:10;;;;;;;0.10;0.10;;;;;;;;;;4997371;28;20042;-82
2023/12/25 03:21:37;;;;;;;0.10;0.10;;;;;;;;;;5012054;28;20053;-83
2023/12/25 03:24:05;;;;;;;0.10;0.10;;;;;;;;;;5013185;28;20043;-82
2023/12/25 03:26:33;;;;;;;0.10;0.10;;;;;;;;;;4984877;28;20502;-82
2023/12/25 03:29:01;;;;;;;0.00;0.00;;;;;;;;;;5010228;28;20137;-83
2023/12/25 03:31:28;;;;;;;0.10;0.10;;;;;;;;;;4994096;28;20034;-80
2023/12/25 03:33:58;;;;;;;0.15;0.15;;;;;;;;;;4980124;28;20046;-83
2023/12/25 03:36:26;;;;;;;0.10;0.10;;;;;;;;;;4986959;28;20100;-84
2023/12/25 03:38:54;;;;;;;0.10;0.10;;;;;;;;;;5018107;28;20046;-82
2023/12/25 03:41:21;;;;;;;0.03;0.03;;;;;;;;;;5008626;28;20650;-80
2023/12/25 03:43:49;;;;;;;0.10;0.10;;;;;;;;;;5008079;28;20034;-81
2023/12/25 03:46:16;;;;;;;0.10;0.10;;;;;;;;;;4986115;28;20046;-81
2023/12/25 03:48:46;;;;;;;0.10;0.10;;;;;;;;;;4998114;28;20042;-83
2023/12/25 03:51:20;;;;;;;0.22;0.22;;;;;;;;;;4990659;28;20061;-82
2023/12/25 03:54:25;;;;;;;0.10;0.10;;;;;;;;;;4177675;22;20053;-88
2023/12/25 03:58:02;;;;;;;0.10;0.10;;;;;;;;;;5038313;23;20045;-88
2023/12/25 04:01:49;;;;;;;0.08;0.08;;;;;;;;;;5026523;28;20033;-88
2023/12/25 04:08:55;;;;;;;0.08;0.08;;;;;;;;;;5000560;28;20507;-89
2023/12/25 04:12:03;;;;;;;0.15;0.15;;;;;;;;;;5024883;28;20455;-89
2023/12/25 04:14:51;;;;;;;0.15;0.15;;;;;;;;;;5003590;28;20041;-88
2023/12/25 04:17:19;;;;;;;0.20;0.20;;;;;;;;;;5011315;28;20176;-89
2023/12/25 04:19:49;;;;;;;0.10;0.10;;;;;;;;;;5007874;28;20049;-89
2023/12/25 04:22:19;;;;;;;0.32;0.32;;;;;;;;;;5017331;28;20037;-88
2023/12/25 04:24:58;;;;;;;0.00;0.00;;;;;;;;;;5019861;28;20517;-89
2023/12/25 04:27:58;;;;;;;0.00;0.00;;;;;;;;;;4995949;28;20061;-88
2023/12/25 04:30:35;;;;;;;0.10;0.10;;;;;;;;;;5020330;28;21040;-90
2023/12/25 04:33:23;;;;;;;1.45;1.05;;;;;;;;;;5020612;28;20046;-89
2023/12/25 04:39:41;;;;;;;0.10;0.10;;;;;;;;;;5017439;28;20049;-90
2023/12/25 04:43:05;;;;;;;0.10;0.10;;;;;;;;;;5015157;28;20034;-90
2023/12/25 04:45:43;;;;;;;0.10;0.10;;;;;;;;;;5020606;28;20076;-90
2023/12/25 04:48:18;;;;;;;0.10;0.10;;;;;;;;;;5009431;23;20045;-91
2023/12/25 04:51:36;;;;;;;0.05;0.05;;;;;;;;;;4984765;28;20099;-91
2023/12/25 04:54:36;;;;;;;0.10;0.10;;;;;;;;;;5016384;28;20128;-90
2023/12/25 04:57:05;;;;;;;0.10;0.10;;;;;;;;;;5023998;28;20033;-90
2023/12/25 05:03:05;;;;;;;0.45;0.45;;;;;;;;;;5023412;28;20045;-91
2023/12/25 05:05:33;;;;;;;0.10;0.10;;;;;;;;;;5020354;28;20060;-88
2023/12/25 05:08:01;;;;;;;0.10;0.10;;;;;;;;;;5020092;28;20045;-88
2023/12/25 05:10:29;;;;;;;0.30;0.30;;;;;;;;;;5026754;28;20072;-89
2023/12/25 05:12:57;;;;;;;0.00;0.00;;;;;;;;;;5024199;28;20560;-89
2023/12/25 05:15:24;;;;;;;0.10;0.10;;;;;;;;;;5007864;28;20045;-87
2023/12/25 05:17:52;;;;;;;0.05;0.05;;;;;;;;;;5010312;28;20488;-88
2023/12/25 05:20:20;;;;;;;0.55;0.55;;;;;;;;;;5033835;28;20427;-89
2023/12/25 05:22:48;;;;;;;0.25;0.25;;;;;;;;;;5032097;28;20051;-89
2023/12/25 05:25:17;;;;;;;0.10;0.10;;;;;;;;;;5012863;28;20041;-88
2023/12/25 05:27:49;;;;;;;0.00;0.00;;;;;;;;;;5031134;28;20034;-88
2023/12/25 05:30:17;;;;;;;0.10;0.10;;;;;;;;;;5039536;28;20076;-89
2023/12/25 05:32:44;;;;;;;0.10;0.10;;;;;;;;;;5024950;28;20083;-89
2023/12/25 05:35:12;;;;;;;0.10;0.10;;;;;;;;;;5031967;28;20113;-88
2023/12/25 05:37:39;;;;;;;0.10;0.10;;;;;;;;;;5021547;28;20049;-88
2023/12/25 05:40:08;;;;;;;0.10;0.10;;;;;;;;;;5011376;28;20076;-88
2023/12/25 05:42:36;;;;;;;0.00;0.00;;;;;;;;;;5031980;28;20468;-88
2023/12/25 05:45:03;;;;;;;0.10;0.10;;;;;;;;;;5037372;28;20525;-89
2023/12/25 05:47:31;;;;;;;0.30;0.30;;;;;;;;;;5020262;28;20045;-88
2023/12/25 05:49:59;;;;;;;0.10;0.10;;;;;;;;;;5030315;28;20052;-89
2023/12/25 05:52:26;;;;;;;0.40;0.40;;;;;;;;;;5016220;28;20848;-89
2023/12/25 05:54:54;;;;;;;0.05;0.05;;;;;;;;;;5009101;28;20123;-88
2023/12/25 05:57:21;;;;;;;0.10;0.10;;;;;;;;;;5041864;28;20122;-87
2023/12/25 05:59:49;;;;;;;0.65;0.65;;;;;;;;;;5031936;28;20131;-89
2023/12/25 06:02:16;;;;;;;0.10;0.10;;;;;;;;;;5031666;28;20053;-88
2023/12/25 06:04:46;;;;;;;0.25;0.25;;;;;;;;;;5035578;28;20049;-89
2023/12/25 06:07:14;;;;;;;1.00;0.93;;;;;;;;;;5015570;28;20416;-88
2023/12/25 06:09:41;;;;;;;0.00;0.00;;;;;;;;;;5034460;28;20042;-89
2023/12/25 06:12:17;;;;;;;0.15;0.15;;;;;;;;;;5002968;28;20132;-88
2023/12/25 06:14:48;;;;;;;0.10;0.10;;;;;;;;;;5007617;28;20128;-89
2023/12/25 06:17:15;;;;;;;0.15;0.15;;;;;;;;;;5015130;28;20546;-89
2023/12/25 06:19:43;;;;;;;0.10;0.10;;;;;;;;;;5015435;28;20056;-88
2023/12/25 06:22:11;;;;;;;0.10;0.10;;;;;;;;;;5034741;28;20523;-89
2023/12/25 06:24:38;;;;;;;0.20;0.20;;;;;;;;;;5031996;28;20080;-89
2023/12/25 06:27:06;;;;;;;0.30;0.30;;;;;;;;;;5010776;28;20107;-87
2023/12/25 06:29:33;;;;;;;0.00;0.00;;;;;;;;;;5011515;28;20046;-87
2023/12/25 06:32:01;;;;;;;0.30;0.30;;;;;;;;;;5022774;28;20050;-88
2023/12/25 06:34:28;;;;;;;0.10;0.10;;;;;;;;;;5026812;28;20109;-88
2023/12/25 06:36:56;;;;;;;0.10;0.10;;;;;;;;;;5043617;28;20118;-89
2023/12/25 06:39:23;;;;;;;0.10;0.10;;;;;;;;;;5030928;28;20313;-89
2023/12/25 06:41:50;;;;;;;0.10;0.10;;;;;;;;;;5005147;28;20041;-89
2023/12/25 06:44:18;;;;;;;0.10;0.10;;;;;;;;;;5032406;28;20552;-88
2023/12/25 06:46:45;;;;;;;0.10;0.10;;;;;;;;;;5032450;28;20045;-94
2023/12/25 06:49:32;;;;;;;0.10;0.10;;;;;;;;;;5044730;28;20283;-90
2023/12/25 06:52:40;;;;;;;0.10;0.10;;;;;;;;;;5030836;28;20467;-91
2023/12/25 06:55:42;;;;;;;0.20;0.20;;;;;;;;;;5018609;28;20042;-88
2023/12/25 06:58:20;;;;;;;0.20;0.20;;;;;;;;;;5030178;28;20041;-89
2023/12/25 07:01:24;;;;;;;0.80;0.80;;;;;;;;;;5004946;28;20045;-88
2023/12/25 07:04:03;;;;;;;0.10;0.10;;;;;;;;;;5011166;28;20045;-89
2023/12/25 07:10:35;;;;;;;0.10;0.10;;;;;;;;;;5034349;28;20060;-89
2023/12/25 07:13:42;;;;;;;0.20;0.20;;;;;;;;;;5015354;28;20045;-86
2023/12/25 07:16:54;;;;;;;0.10;0.10;;;;;;;;;;4990663;28;20049;-85
2023/12/25 07:19:58;;;;;;;0.10;0.10;;;;;;;;;;5033599;28;20048;-86
2023/12/25 07:22:44;;;;;;;0.10;0.10;;;;;;;;;;5013061;28;20045;-87
2023/12/25 07:29:06;;;;;;;;;;;;;;;;;;;;;
2023/12/25 07:32:52;;;;;;;0.10;0.10;;;;;;;;;;5020182;28;20112;-86
2023/12/25 07:39:21;;;;;;;0.22;0.22;;;;;;;;;;5030236;28;20416;-85
2023/12/25 07:46:40;;;;;;;0.30;0.30;;;;;;;;;;5028431;28;20049;-85
2023/12/25 07:50:05;;;;;;;0.10;0.10;;;;;;;;;;4973782;28;20206;-86
2023/12/25 07:53:54;;;;;;;0.10;0.10;;;;;;;;;;4988749;28;20540;-85
2023/12/25 07:57:22;;;;;;;0.40;0.40;;;;;;;;;;4988794;28;20048;-86
2023/12/25 08:00:50;;;;;;;;;;;;;;;;;;;;;
2023/12/25 08:04:18;;;;;;;0.20;0.20;;;;;;;;;;4974440;28;20036;-86
2023/12/25 08:07:41;;;;;;;0.13;0.13;;;;;;;;;;4979671;28;20037;-86
2023/12/25 08:10:45;;;;;;;;;;;;;;;;;;;;;
2023/12/25 08:13:59;;;;;;;0.10;0.10;;;;;;;;;;5004201;28;20049;-86
2023/12/25 08:17:35;;;;;;;1.13;1.08;;;;;;;;;;4992633;28;20602;-86
2023/12/25 08:25:07;;;;;;;2.20;0.50;;;;;;;;;;5005987;28;20046;-86
2023/12/25 08:28:58;;;;;;;0.35;0.20;;;;;;;;;;4967946;28;20046;-86
2023/12/25 08:33:01;;;;;;;0.10;0.10;;;;;;;;;;4992250;28;20036;-86
2023/12/25 08:36:41;;;;;;;1.25;0.77;;;;;;;;;;4993336;28;20054;-86
2023/12/25 08:39:36;;;;;;;0.13;0.13;;;;;;;;;;4995654;28;20139;-76
2023/12/25 08:42:04;;;;;;;0.10;0.10;;;;;;;;;;4998194;28;20073;-76
2023/12/25 08:44:33;;;;;;;0.05;0.05;;;;;;;;;;5002818;28;20065;-76
2023/12/25 08:47:03;;;;;;;0.10;0.10;;;;;;;;;;4996591;28;20096;-76
2023/12/25 08:49:30;;;;;;;0.10;0.10;;;;;;;;;;4993138;28;20152;-76
2023/12/25 08:51:58;;;;;;;0.10;0.10;;;;;;;;;;4993997;28;20141;-76
2023/12/25 08:54:27;;;;;;;0.10;0.10;;;;;;;;;;5000993;28;20060;-76
2023/12/25 08:56:56;;;;;;;0.10;0.10;;;;;;;;;;4995462;28;20142;-76
2023/12/25 08:59:24;;;;;;;0.10;0.10;;;;;;;;;;5000382;28;20122;-76
2023/12/25 09:01:53;;;;;;;0.08;0.08;;;;;;;;;;5000846;28;20096;-76
2023/12/25 09:04:21;;;;;;;0.00;0.00;;;;;;;;;;5006752;28;20455;-76
2023/12/25 09:06:49;;;;;;;0.45;0.45;;;;;;;;;;5001786;28;20078;-76
2023/12/25 09:09:17;;;;;;;0.10;0.10;;;;;;;;;;4996517;28;20061;-76
2023/12/25 09:11:46;;;;;;;0.00;0.00;;;;;;;;;;4993947;28;20100;-76
2023/12/25 09:14:14;;;;;;;0.20;0.20;;;;;;;;;;4951521;28;20172;-77
2023/12/25 09:16:42;;;;;;;0.20;0.20;;;;;;;;;;4992342;28;20108;-76
2023/12/25 09:19:11;;;;;;;0.57;0.20;;;;;;;;;;4982441;28;20042;-76
2023/12/25 09:21:40;;;;;;;0.63;0.63;;;;;;;;;;4990370;28;20528;-76
2023/12/25 09:24:08;;;;;;;0.10;0.10;;;;;;;;;;4989220;28;20096;-77
2023/12/25 09:26:37;;;;;;;0.10;0.10;;;;;;;;;;4993918;28;20045;-77
2023/12/25 09:29:05;;;;;;;0.00;0.00;;;;;;;;;;5003951;28;20229;-78
2023/12/25 09:31:32;;;;;;;0.10;0.10;;;;;;;;;;4999495;28;20219;-75
2023/12/25 09:34:01;;;;;;;0.10;0.10;;;;;;;;;;4999755;28;20160;-75
2023/12/25 09:36:29;;;;;;;0.30;0.30;;;;;;;;;;4994627;28;20049;-76
2023/12/25 09:38:57;;;;;;;0.20;0.20;;;;;;;;;;4993096;28;20073;-76
2023/12/25 09:41:25;;;;;;;0.05;0.05;;;;;;;;;;4981186;28;20415;-75
2023/12/25 09:43:55;;;;;;;0.10;0.10;;;;;;;;;;4982711;28;20486;-76
2023/12/25 09:46:23;;;;;;;0.20;0.20;;;;;;;;;;5001636;28;20054;-76
2023/12/25 09:48:50;;;;;;;0.10;0.10;;;;;;;;;;5001396;28;20550;-76
2023/12/25 09:51:20;;;;;;;0.10;0.10;;;;;;;;;;4999115;28;20050;-76
2023/12/25 09:53:48;;;;;;;0.10;0.10;;;;;;;;;;4980085;28;20132;-77
2023/12/25 09:56:17;;;;;;;0.10;0.10;;;;;;;;;;4961686;28;20185;-76
2023/12/25 09:58:46;;;;;;;0.30;0.30;;;;;;;;;;4987394;28;20046;-76
2023/12/25 10:01:17;;;;;;;0.10;0.10;;;;;;;;;;4972594;28;20046;-75
2023/12/25 10:03:45;;;;;;;0.50;0.50;;;;;;;;;;4992083;28;20193;-76
2023/12/25 10:06:13;;;;;;;0.10;0.10;;;;;;;;;;4979570;28;20041;-77
2023/12/25 10:08:42;;;;;;;0.20;0.20;;;;;;;;;;4989941;28;20522;-76
2023/12/25 10:11:13;;;;;;;0.50;0.50;;;;;;;;;;4996515;28;20104;-75
2023/12/25 10:13:41;;;;;;;;;;;;;;;;;;4998597;28;20054;-75
2023/12/25 10:16:09;;;;;;;0.10;0.10;;;;;;;;;;4992767;28;19937;-76
2023/12/25 10:18:38;;;;;;;0.10;0.10;;;;;;;;;;5002934;28;20497;-75
2023/12/25 10:21:06;;;;;;;0.10;0.10;;;;;;;;;;4999967;28;20049;-75
2023/12/25 10:23:36;;;;;;;0.28;0.28;;;;;;;;;;4984797;28;20077;-75
2023/12/25 10:26:04;;;;;;;0.45;0.45;;;;;;;;;;5005489;28;20101;-75
2023/12/25 10:28:33;;;;;;;0.20;0.20;;;;;;;;;;5002965;28;20451;-76
2023/12/25 10:31:02;;;;;;;0.10;0.10;;;;;;;;;;5002909;28;20046;-75
2023/12/25 10:33:30;;;;;;;0.40;0.40;;;;;;;;;;5001904;28;20042;-76
2023/12/25 10:36:01;;;;;;;0.10;0.10;;;;;;;;;;5001472;28;20542;-76
2023/12/25 10:38:29;;;;;;;0.40;0.40;;;;;;;;;;5002271;28;20169;-76
2023/12/25 10:40:57;;;;;;;0.08;0.05;;;;;;;;;;4995636;28;20035;-76
2023/12/25 10:43:25;;;;;;;0.10;0.10;;;;;;;;;;5007957;28;20392;-75
2023/12/25 10:45:54;;;;;;;0.10;0.10;;;;;;;;;;5005468;28;20056;-76
2023/12/25 10:48:22;;;;;;;0.80;0.40;;;;;;;;;;5003078;28;20049;-76
2023/12/25 10:50:51;;;;;;;0.43;0.30;;;;;;;;;;5005229;28;20057;-76
2023/12/25 10:53:19;;;;;;;0.10;0.10;;;;;;;;;;5001390;28;20046;-75
2023/12/25 10:55:47;;;;;;;0.30;0.30;;;;;;;;;;4998948;28;20100;-76
2023/12/25 10:58:22;;;;;;;0.03;0.03;;;;;;;;;;4997178;28;20188;-76
2023/12/25 11:00:56;;;;;;;0.20;0.20;;;;;;;;;;4951079;28;20038;-77
2023/12/25 11:03:24;;;;;;;0.00;0.00;;;;;;;;;;4997295;28;20228;-76
2023/12/25 11:05:52;;;;;;;0.05;0.05;;;;;;;;;;5004024;28;20038;-76
2023/12/25 11:08:20;;;;;;;0.10;0.10;;;;;;;;;;5001797;28;20046;-76
2023/12/25 11:11:01;;;;;;;0.20;0.20;;;;;;;;;;5003149;28;20045;-76
2023/12/25 11:13:31;;;;;;;1.55;0.77;;;;;;;;;;4998418;28;20508;-76
2023/12/25 11:15:59;;;;;;;0.10;0.10;;;;;;;;;;4975505;28;20046;-78
2023/12/25 11:18:27;;;;;;;0.10;0.10;;;;;;;;;;5003874;28;20038;-78
2023/12/25 11:21:18;;;;;;;0.10;0.10;;;;;;;;;;4999370;28;20053;-78
2023/12/25 11:23:48;;;;;;;0.13;0.13;;;;;;;;;;5005498;28;20101;-77
2023/12/25 11:26:18;;;;;;;0.00;0.00;;;;;;;;;;4999688;28;20136;-76
2023/12/25 11:28:55;;;;;;;0.43;0.43;;;;;;;;;;5004794;28;20061;-77
2023/12/25 11:31:23;;;;;;;0.20;0.20;;;;;;;;;;5004729;28;20071;-77
2023/12/25 11:33:51;;;;;;;0.00;0.00;;;;;;;;;;5000921;28;20076;-76
2023/12/25 11:36:21;;;;;;;0.10;0.10;;;;;;;;;;5000764;28;20118;-77
2023/12/25 11:38:55;;;;;;;0.10;0.10;;;;;;;;;;5003304;28;20034;-78
2023/12/25 11:41:23;;;;;;;0.10;0.10;;;;;;;;;;5008562;28;20124;-78
2023/12/25 11:43:51;;;;;;;0.00;0.00;;;;;;;;;;5006344;28;20077;-75
2023/12/25 11:46:19;;;;;;;0.20;0.20;;;;;;;;;;4986124;28;20045;-77
2023/12/25 11:48:48;;;;;;;0.10;0.10;;;;;;;;;;4994774;28;26991;-74
2023/12/25 11:51:34;;;;;;;0.10;0.10;;;;;;;;;;4999071;28;20045;-73
2023/12/25 11:54:03;;;;;;;0.10;0.10;;;;;;;;;;4954486;28;20155;-77
2023/12/25 11:56:34;;;;;;;0.10;0.10;;;;;;;;;;4958985;28;22142;-76
2023/12/25 11:59:04;;;;;;;0.10;0.10;;;;;;;;;;4965734;28;20455;-78
2023/12/25 12:01:31;;;;;;;0.10;0.10;;;;;;;;;;5006386;28;20070;-76
2023/12/25 12:03:59;;;;;;;0.10;0.10;;;;;;;;;;5007499;28;20046;-78
2023/12/25 12:06:27;;;;;;;0.10;0.10;;;;;;;;;;5007589;28;20564;-75
2023/12/25 12:08:58;;;;;;;1.40;0.65;;;;;;;;;;5002929;28;20104;-75
2023/12/25 12:11:29;;;;;;;0.10;0.10;;;;;;;;;;5008235;28;20469;-77
2023/12/25 12:13:58;;;;;;;0.03;0.03;;;;;;;;;;5001328;28;20506;-77
2023/12/25 12:16:27;;;;;;;0.50;0.50;;;;;;;;;;4994136;28;20473;-79
2023/12/25 12:18:55;;;;;;;0.10;0.10;;;;;;;;;;5009751;28;20052;-80
2023/12/25 12:21:23;;;;;;;0.20;0.20;;;;;;;;;;5007819;28;20038;-80
2023/12/25 12:23:51;;;;;;;0.10;0.10;;;;;;;;;;4999168;28;20129;-79
2023/12/25 12:26:18;;;;;;;0.00;0.00;;;;;;;;;;4994399;28;20038;-77
2023/12/25 12:28:47;;;;;;;0.10;0.10;;;;;;;;;;5003245;28;20052;-79
2023/12/25 12:31:14;;;;;;;0.20;0.20;;;;;;;;;;5003671;28;20134;-79
2023/12/25 12:33:43;;;;;;;0.10;0.10;;;;;;;;;;5006684;28;20056;-76
2023/12/25 12:36:11;;;;;;;0.20;0.20;;;;;;;;;;5011885;28;20046;-78
2023/12/25 12:38:40;;;;;;;0.13;0.13;;;;;;;;;;5011842;28;20064;-76
2023/12/25 12:41:07;;;;;;;0.10;0.10;;;;;;;;;;5013663;28;20053;-78
2023/12/25 12:43:36;;;;;;;0.10;0.10;;;;;;;;;;5003597;28;20049;-76
2023/12/25 12:46:13;;;;;;;0.10;0.10;;;;;;;;;;5009028;28;20252;-76
2023/12/25 12:48:41;;;;;;;0.10;0.10;;;;;;;;;;5002355;28;20072;-79
2023/12/25 12:51:09;;;;;;;0.10;0.10;;;;;;;;;;5012908;28;20274;-79
2023/12/25 12:53:37;;;;;;;0.30;0.30;;;;;;;;;;5011427;28;20054;-79
2023/12/25 12:56:08;;;;;;;0.10;0.10;;;;;;;;;;5012563;28;20056;-78
2023/12/25 12:58:36;;;;;;;0.20;0.20;;;;;;;;;;5011663;28;20072;-78
2023/12/25 13:01:08;;;;;;;0.20;0.20;;;;;;;;;;4997526;28;20120;-76
2023/12/25 13:03:37;;;;;;;0.00;0.00;;;;;;;;;;4982855;28;20042;-79
2023/12/25 13:06:05;;;;;;;0.30;0.30;;;;;;;;;;5007720;28;20034;-79
2023/12/25 13:08:33;;;;;;;0.00;0.00;;;;;;;;;;5009884;28;20516;-80
2023/12/25 13:11:02;;;;;;;0.10;0.10;;;;;;;;;;5012088;28;20053;-80
2023/12/25 13:13:30;;;;;;;0.10;0.10;;;;;;;;;;5011895;28;20054;-80
2023/12/25 13:15:58;;;;;;;0.15;0.15;;;;;;;;;;5013853;28;20049;-79
2023/12/25 13:18:29;;;;;;;0.10;0.10;;;;;;;;;;5005415;28;20066;-75
2023/12/25 13:21:09;;;;;;;0.00;0.00;;;;;;;;;;4984786;28;20101;-77
2023/12/25 13:23:42;;;;;;;1.05;1.05;;;;;;;;;;4997655;28;20064;-75
2023/12/25 13:26:12;;;;;;;0.17;0.17;;;;;;;;;;5003453;28;20088;-76
2023/12/25 13:28:41;;;;;;;0.00;0.00;;;;;;;;;;5004866;28;20057;-80
2023/12/25 13:31:12;;;;;;;0.10;0.10;;;;;;;;;;4989328;28;20073;-78
2023/12/25 13:33:42;;;;;;;0.10;0.10;;;;;;;;;;4967878;28;20062;-79
2023/12/25 13:36:13;;;;;;;0.25;0.25;;;;;;;;;;5006077;28;20291;-77
2023/12/25 13:38:41;;;;;;;0.15;0.15;;;;;;;;;;5008459;28;20195;-79
2023/12/25 13:41:09;;;;;;;0.10;0.10;;;;;;;;;;5016130;28;20050;-79
2023/12/25 13:43:36;;;;;;;0.08;0.08;;;;;;;;;;5005844;28;20204;-78
2023/12/25 13:46:05;;;;;;;0.10;0.10;;;;;;;;;;5024212;28;20125;-77
2023/12/25 13:48:33;;;;;;;0.00;0.00;;;;;;;;;;4999183;28;20514;-76
2023/12/25 13:51:02;;;;;;;0.10;0.10;;;;;;;;;;5012763;28;20436;-76
2023/12/25 13:53:30;;;;;;;0.28;0.28;;;;;;;;;;4996272;28;20392;-78
2023/12/25 13:55:58;;;;;;;0.08;0.08;;;;;;;;;;5011067;28;20056;-76
2023/12/25 13:58:26;;;;;;;0.20;0.20;;;;;;;;;;5009782;28;20050;-77
2023/12/25 14:00:53;;;;;;;1.45;1.35;;;;;;;;;;5013047;28;20420;-76
2023/12/25 14:03:21;;;;;;;0.77;0.77;;;;;;;;;;5016732;28;20056;-77
2023/12/25 14:05:49;;;;;;;0.30;0.30;;;;;;;;;;5010863;28;20101;-77
2023/12/25 14:08:17;;;;;;;0.93;0.93;;;;;;;;;;5015828;28;20080;-76
2023/12/25 14:10:49;;;;;;;0.40;0.20;;;;;;;;;;5005863;28;20053;-75
2023/12/25 14:13:17;;;;;;;0.10;0.10;;;;;;;;;;4998788;28;20046;-76
2023/12/25 14:15:51;;;;;;;0.10;0.10;;;;;;;;;;4995025;28;20049;-76
2023/12/25 14:18:28;;;;;;;0.05;0.05;;;;;;;;;;5014600;28;20049;-77
2023/12/25 14:20:56;;;;;;;0.70;0.20;;;;;;;;;;4999762;28;20446;-78
2023/12/25 14:23:24;;;;;;;0.30;0.30;;;;;;;;;;5021046;28;20046;-77
2023/12/25 14:25:55;;;;;;;0.20;0.20;;;;;;;;;;5015488;28;20080;-77
2023/12/25 14:28:23;;;;;;;0.25;0.25;;;;;;;;;;5003899;28;20499;-76
2023/12/25 14:30:51;;;;;;;0.10;0.10;;;;;;;;;;4997842;28;20058;-77
2023/12/25 14:33:19;;;;;;;0.10;0.10;;;;;;;;;;5024702;28;20072;-77
2023/12/25 14:35:47;;;;;;;0.10;0.10;;;;;;;;;;5022338;28;20080;-77
2023/12/25 14:38:15;;;;;;;0.10;0.10;;;;;;;;;;5014944;28;20076;-77
2023/12/25 14:40:43;;;;;;;0.00;0.00;;;;;;;;;;5002332;28;20046;-77
2023/12/25 14:43:12;;;;;;;0.05;0.05;;;;;;;;;;5014336;28;20500;-75
2023/12/25 14:45:39;;;;;;;0.00;0.00;;;;;;;;;;5016818;28;20054;-77
2023/12/25 14:48:08;;;;;;;0.10;0.10;;;;;;;;;;5013528;28;20057;-78
2023/12/25 14:50:37;;;;;;;0.00;0.00;;;;;;;;;;5015171;28;20061;-78
2023/12/25 14:53:05;;;;;;;0.10;0.10;;;;;;;;;;5004904;28;20064;-76
2023/12/25 14:55:33;;;;;;;0.10;0.10;;;;;;;;;;5018700;28;20049;-76
2023/12/25 14:58:01;;;;;;;0.47;0.30;;;;;;;;;;5015525;28;20050;-75
2023/12/25 15:00:43;;;;;;;0.15;0.15;;;;;;;;;;5014223;28;20053;-76
2023/12/25 15:03:11;;;;;;;0.10;0.10;;;;;;;;;;5011884;28;20041;-75
2023/12/25 15:05:39;;;;;;;0.20;0.20;;;;;;;;;;5022176;28;20121;-77
2023/12/25 15:08:06;;;;;;;0.13;0.13;;;;;;;;;;5021157;28;20057;-78
2023/12/25 15:10:34;;;;;;;0.00;0.00;;;;;;;;;;5018765;28;20057;-77
2023/12/25 15:13:02;;;;;;;0.47;0.47;;;;;;;;;;4994046;28;20046;-75
2023/12/25 15:15:30;;;;;;;0.57;0.57;;;;;;;;;;4996704;28;20046;-77
2023/12/25 15:18:00;;;;;;;0.10;0.10;;;;;;;;;;5005229;28;20137;-76
2023/12/25 15:20:29;;;;;;;1.20;1.20;;;;;;;;;;5013363;28;20106;-77
2023/12/25 15:22:56;;;;;;;0.32;0.32;;;;;;;;;;5017966;28;20045;-77
2023/12/25 15:25:25;;;;;;;0.10;0.10;;;;;;;;;;4995948;28;20121;-77
2023/12/25 15:27:53;;;;;;;0.10;0.10;;;;;;;;;;4990487;28;20459;-77
2023/12/25 15:30:21;;;;;;;0.32;0.32;;;;;;;;;;5017676;28;20081;-77
2023/12/25 15:32:49;;;;;;;0.20;0.20;;;;;;;;;;5028731;28;20064;-75
2023/12/25 15:35:17;;;;;;;0.13;0.13;;;;;;;;;;5009796;28;20057;-77
2023/12/25 15:37:44;;;;;;;0.10;0.10;;;;;;;;;;5015522;28;20119;-77
2023/12/25 15:40:12;;;;;;;0.38;0.38;;;;;;;;;;5030957;28;20522;-78
2023/12/25 15:42:40;;;;;;;0.30;0.30;;;;;;;;;;5018409;28;20503;-78
2023/12/25 15:45:08;;;;;;;0.28;0.28;;;;;;;;;;4997629;28;20113;-78
2023/12/25 15:47:36;;;;;;;0.10;0.10;;;;;;;;;;5022162;28;20057;-76
2023/12/25 15:50:07;;;;;;;0.65;0.28;;;;;;;;;;4997555;28;20562;-77
2023/12/25 15:52:35;;;;;;;0.10;0.10;;;;;;;;;;5024871;28;20069;-76
2023/12/25 15:55:03;;;;;;;0.20;0.20;;;;;;;;;;5005691;28;20053;-77